createdAt,value
2018-01-27T00:00:58.403Z,4.61
2018-01-27T00:02:00.891Z,4.52
2018-01-27T00:03:03.363Z,4.45
2018-01-27T00:04:05.831Z,4.50
2018-01-27T00:05:08.304Z,4.51
2018-01-27T00:06:10.779Z,4.57
2018-01-27T00:07:13.297Z,4.50
2018-01-27T00:08:16.221Z,4.50
2018-01-27T00:09:18.687Z,4.57
2018-01-27T00:10:21.146Z,4.97
2018-01-27T00:11:23.629Z,5.06
2018-01-27T00:12:26.119Z,5.02
2018-01-27T00:13:28.582Z,5.00
2018-01-27T00:14:31.061Z,4.90
2018-01-27T00:15:33.540Z,4.81
2018-01-27T00:16:36.017Z,4.87
2018-01-27T00:17:38.515Z,4.77
2018-01-27T00:18:40.998Z,4.60
2018-01-27T00:19:43.489Z,4.63
2018-01-27T00:20:45.969Z,4.66
2018-01-27T00:21:48.510Z,4.87
2018-01-27T00:22:52.852Z,4.77
2018-01-27T00:23:55.315Z,4.60
2018-01-27T00:24:57.824Z,4.64
2018-01-27T00:26:00.295Z,4.61
2018-01-27T00:27:02.762Z,4.54
2018-01-27T00:28:05.300Z,4.58
2018-01-27T00:29:07.775Z,4.77
2018-01-27T00:30:10.235Z,4.62
2018-01-27T00:31:12.716Z,4.63
2018-01-27T00:32:15.191Z,4.65
2018-01-27T00:33:17.654Z,4.60
2018-01-27T00:34:20.136Z,4.60
2018-01-27T00:35:22.706Z,4.66
2018-01-27T00:36:25.189Z,4.60
2018-01-27T00:37:27.668Z,4.58
2018-01-27T00:38:30.152Z,4.74
2018-01-27T00:39:32.638Z,4.78
2018-01-27T00:40:35.106Z,4.79
2018-01-27T00:41:37.591Z,4.83
2018-01-27T00:42:40.074Z,4.76
2018-01-27T00:43:42.538Z,4.83
2018-01-27T00:44:45.017Z,4.75
2018-01-27T00:45:47.492Z,4.81
2018-01-27T00:46:49.963Z,4.79
2018-01-27T00:47:52.426Z,5.03
2018-01-27T00:48:54.890Z,5.12
2018-01-27T00:49:57.354Z,5.16
2018-01-27T00:50:59.882Z,5.13
2018-01-27T00:52:02.350Z,5.03
2018-01-27T00:53:04.881Z,4.98
2018-01-27T00:54:07.347Z,5.02
2018-01-27T00:55:09.814Z,5.30
2018-01-27T00:56:12.298Z,5.24
2018-01-27T00:57:14.768Z,5.13
2018-01-27T00:58:17.239Z,5.21
2018-01-27T00:59:19.738Z,5.24
2018-01-27T01:00:22.224Z,5.31
2018-01-27T01:01:24.771Z,5.16
2018-01-27T01:02:27.258Z,5.06
2018-01-27T01:03:29.722Z,4.98
2018-01-27T01:04:32.201Z,4.95
2018-01-27T01:05:34.684Z,5.33
2018-01-27T01:06:37.168Z,5.55
2018-01-27T01:07:39.650Z,5.51
2018-01-27T01:08:42.127Z,5.38
2018-01-27T01:09:44.594Z,5.34
2018-01-27T01:10:47.058Z,5.37
2018-01-27T01:11:49.527Z,5.39
2018-01-27T01:12:52.017Z,5.37
2018-01-27T01:13:54.486Z,5.36
2018-01-27T01:14:56.969Z,5.21
2018-01-27T01:15:59.460Z,5.18
2018-01-27T01:17:01.933Z,5.23
2018-01-27T01:18:04.397Z,5.14
2018-01-27T01:19:06.863Z,5.26
2018-01-27T01:20:09.342Z,5.36
2018-01-27T01:21:11.829Z,5.20
2018-01-27T01:22:14.296Z,5.28
2018-01-27T01:23:16.786Z,5.24
2018-01-27T01:24:19.255Z,5.19
2018-01-27T01:25:21.735Z,5.41
2018-01-27T01:26:24.199Z,5.36
2018-01-27T01:27:26.662Z,5.38
2018-01-27T01:28:29.128Z,5.38
2018-01-27T01:29:31.586Z,5.37
2018-01-27T01:30:34.098Z,5.44
2018-01-27T01:31:36.575Z,5.36
2018-01-27T01:32:39.042Z,5.42
2018-01-27T01:33:41.510Z,5.52
2018-01-27T01:34:43.970Z,5.30
2018-01-27T01:35:46.444Z,5.29
2018-01-27T01:36:48.925Z,5.27
2018-01-27T01:37:51.501Z,5.34
2018-01-27T01:38:53.967Z,5.29
2018-01-27T01:39:56.426Z,5.49
2018-01-27T01:40:58.891Z,5.59
2018-01-27T01:42:01.355Z,5.37
2018-01-27T01:43:09.441Z,5.46
2018-01-27T01:44:17.415Z,5.58
2018-01-27T01:45:19.897Z,5.63
2018-01-27T01:46:22.377Z,5.57
2018-01-27T01:47:24.839Z,5.50
2018-01-27T01:48:27.316Z,5.56
2018-01-27T01:49:29.792Z,5.46
2018-01-27T01:50:32.273Z,5.50
2018-01-27T01:51:34.738Z,5.38
2018-01-27T01:52:37.211Z,5.36
2018-01-27T01:53:39.688Z,5.22
2018-01-27T01:54:42.155Z,5.09
2018-01-27T01:55:44.623Z,5.11
2018-01-27T01:56:47.102Z,5.20
2018-01-27T01:57:49.568Z,5.19
2018-01-27T01:58:52.035Z,5.10
2018-01-27T01:59:54.498Z,5.15
2018-01-27T02:00:56.976Z,5.30
2018-01-27T02:01:59.442Z,5.26
2018-01-27T02:03:01.907Z,5.24
2018-01-27T02:04:04.388Z,5.31
2018-01-27T02:05:06.850Z,5.22
2018-01-27T02:06:09.329Z,5.42
2018-01-27T02:07:11.806Z,5.35
2018-01-27T02:08:14.274Z,5.30
2018-01-27T02:09:16.743Z,5.35
2018-01-27T02:10:19.211Z,5.26
2018-01-27T02:11:21.671Z,5.27
2018-01-27T02:12:24.138Z,5.30
2018-01-27T02:13:26.610Z,5.43
2018-01-27T02:14:29.195Z,5.44
2018-01-27T02:15:31.677Z,5.26
2018-01-27T02:16:34.184Z,5.29
2018-01-27T02:17:36.642Z,5.14
2018-01-27T02:18:39.107Z,5.07
2018-01-27T02:19:41.585Z,5.04
2018-01-27T02:20:44.069Z,5.02
2018-01-27T02:21:46.546Z,5.00
2018-01-27T02:22:49.050Z,4.97
2018-01-27T02:23:51.517Z,4.93
2018-01-27T02:24:53.996Z,4.85
2018-01-27T02:25:56.458Z,4.85
2018-01-27T02:26:58.939Z,4.80
2018-01-27T02:28:01.424Z,4.77
2018-01-27T02:29:03.913Z,4.88
2018-01-27T02:30:06.393Z,4.84
2018-01-27T02:31:08.918Z,4.83
2018-01-27T02:32:11.363Z,4.81
2018-01-27T02:33:13.834Z,4.85
2018-01-27T02:34:16.317Z,4.83
2018-01-27T02:35:18.793Z,4.84
2018-01-27T02:36:21.260Z,4.95
2018-01-27T02:37:23.748Z,4.95
2018-01-27T02:38:26.214Z,4.90
2018-01-27T02:39:28.678Z,4.89
2018-01-27T02:40:31.147Z,4.91
2018-01-27T02:41:33.709Z,5.13
2018-01-27T02:42:36.179Z,5.31
2018-01-27T02:43:38.645Z,5.32
2018-01-27T02:44:41.106Z,5.26
2018-01-27T02:45:43.584Z,5.32
2018-01-27T02:46:46.065Z,5.23
2018-01-27T02:47:48.540Z,5.14
2018-01-27T02:48:51.021Z,5.10
2018-01-27T02:49:53.497Z,5.12
2018-01-27T02:50:55.967Z,5.16
2018-01-27T02:51:58.453Z,5.17
2018-01-27T02:53:00.932Z,5.19
2018-01-27T02:54:03.413Z,5.44
2018-01-27T02:55:05.884Z,5.56
2018-01-27T02:56:08.377Z,5.79
2018-01-27T02:57:10.883Z,5.92
2018-01-27T02:58:13.356Z,5.91
2018-01-27T02:59:15.833Z,5.83
2018-01-27T03:00:18.313Z,5.76
2018-01-27T03:01:20.782Z,5.80
2018-01-27T03:02:23.275Z,5.82
2018-01-27T03:03:25.756Z,5.83
2018-01-27T03:04:28.218Z,5.84
2018-01-27T03:05:30.702Z,5.66
2018-01-27T03:06:33.178Z,5.67
2018-01-27T03:07:35.643Z,5.74
2018-01-27T03:08:38.117Z,5.67
2018-01-27T03:09:40.578Z,5.46
2018-01-27T03:10:43.058Z,5.42
2018-01-27T03:11:45.526Z,5.45
2018-01-27T03:12:48.009Z,5.55
2018-01-27T03:13:50.493Z,5.67
2018-01-27T03:14:52.976Z,5.70
2018-01-27T03:15:55.453Z,5.57
2018-01-27T03:16:57.910Z,5.69
2018-01-27T03:18:00.393Z,5.69
2018-01-27T03:19:02.868Z,5.67
2018-01-27T03:20:05.349Z,5.58
2018-01-27T03:21:07.829Z,5.56
2018-01-27T03:22:10.304Z,5.73
2018-01-27T03:23:12.777Z,5.75
2018-01-27T03:24:15.260Z,5.71
2018-01-27T03:25:17.741Z,5.68
2018-01-27T03:26:20.224Z,5.50
2018-01-27T03:27:22.692Z,5.36
2018-01-27T03:28:25.173Z,5.43
2018-01-27T03:29:27.638Z,5.61
2018-01-27T03:30:30.119Z,5.55
2018-01-27T03:31:32.636Z,5.61
2018-01-27T03:32:35.125Z,5.59
2018-01-27T03:33:37.605Z,5.58
2018-01-27T03:34:40.084Z,5.53
2018-01-27T03:35:42.557Z,5.67
2018-01-27T03:36:45.023Z,5.60
2018-01-27T03:37:47.492Z,5.52
2018-01-27T03:38:49.958Z,5.51
2018-01-27T03:39:52.451Z,5.58
2018-01-27T03:40:54.925Z,5.75
2018-01-27T03:41:57.395Z,5.57
2018-01-27T03:42:59.873Z,5.57
2018-01-27T03:44:02.339Z,5.56
2018-01-27T03:45:04.824Z,5.48
2018-01-27T03:46:07.287Z,5.51
2018-01-27T03:47:09.752Z,5.55
2018-01-27T03:48:12.230Z,5.57
2018-01-27T03:49:14.694Z,5.68
2018-01-27T03:50:17.193Z,5.70
2018-01-27T03:51:19.663Z,5.76
2018-01-27T03:52:22.153Z,5.64
2018-01-27T03:53:24.633Z,5.68
2018-01-27T03:54:27.113Z,5.80
2018-01-27T03:55:29.578Z,5.85
2018-01-27T03:56:32.046Z,5.81
2018-01-27T03:57:34.520Z,5.61
2018-01-27T03:58:37.028Z,5.70
2018-01-27T03:59:39.486Z,5.72
2018-01-27T04:00:41.961Z,5.78
2018-01-27T04:01:44.436Z,5.82
2018-01-27T04:02:46.917Z,5.79
2018-01-27T04:03:49.405Z,5.74
2018-01-27T04:04:51.872Z,5.77
2018-01-27T04:05:54.350Z,5.70
2018-01-27T04:06:56.826Z,5.75
2018-01-27T04:07:59.390Z,5.70
2018-01-27T04:09:01.873Z,5.75
2018-01-27T04:10:04.335Z,5.63
2018-01-27T04:11:06.820Z,5.53
2018-01-27T04:12:09.286Z,5.55
2018-01-27T04:13:11.770Z,5.46
2018-01-27T04:14:14.253Z,5.52
2018-01-27T04:15:16.730Z,5.60
2018-01-27T04:16:19.194Z,5.62
2018-01-27T04:17:21.676Z,5.51
2018-01-27T04:18:24.138Z,5.44
2018-01-27T04:19:26.608Z,5.52
2018-01-27T04:20:29.080Z,5.72
2018-01-27T04:21:31.560Z,5.71
2018-01-27T04:22:34.043Z,5.51
2018-01-27T04:23:36.539Z,5.54
2018-01-27T04:24:39.017Z,5.60
2018-01-27T04:25:41.493Z,5.56
2018-01-27T04:26:43.972Z,5.61
2018-01-27T04:27:46.458Z,5.69
2018-01-27T04:28:48.941Z,5.68
2018-01-27T04:29:51.422Z,5.58
2018-01-27T04:30:53.899Z,5.59
2018-01-27T04:31:56.385Z,5.53
2018-01-27T04:32:58.866Z,5.66
2018-01-27T04:34:01.349Z,5.69
2018-01-27T04:35:03.819Z,5.49
2018-01-27T04:36:06.290Z,5.52
2018-01-27T04:37:08.768Z,5.46
2018-01-27T04:38:11.258Z,5.48
2018-01-27T04:39:13.733Z,5.40
2018-01-27T04:40:16.212Z,5.44
2018-01-27T04:41:18.686Z,5.57
2018-01-27T04:42:21.162Z,5.53
2018-01-27T04:43:23.627Z,5.62
2018-01-27T04:44:26.090Z,5.60
2018-01-27T04:45:28.546Z,5.46
2018-01-27T04:46:31.007Z,5.40
2018-01-27T04:47:33.505Z,5.34
2018-01-27T04:48:35.969Z,5.36
2018-01-27T04:49:38.461Z,5.38
2018-01-27T04:50:40.922Z,5.48
2018-01-27T04:51:43.409Z,5.51
2018-01-27T04:52:45.901Z,5.42
2018-01-27T04:53:48.367Z,5.34
2018-01-27T04:54:50.849Z,5.23
2018-01-27T04:55:53.325Z,5.41
2018-01-27T04:56:55.790Z,5.46
2018-01-27T04:57:58.256Z,5.40
2018-01-27T04:59:00.737Z,5.48
2018-01-27T05:00:03.216Z,5.29
2018-01-27T05:01:05.697Z,5.42
2018-01-27T05:02:08.182Z,5.56
2018-01-27T05:03:10.664Z,5.53
2018-01-27T05:04:13.126Z,5.46
2018-01-27T05:05:15.664Z,5.57
2018-01-27T05:06:18.144Z,5.70
2018-01-27T05:07:20.641Z,5.67
2018-01-27T05:08:23.122Z,5.57
2018-01-27T05:09:25.586Z,5.64
2018-01-27T05:10:28.077Z,5.70
2018-01-27T05:11:30.561Z,5.61
2018-01-27T05:12:33.040Z,5.61
2018-01-27T05:13:35.538Z,5.50
2018-01-27T05:14:38.028Z,5.45
2018-01-27T05:15:40.522Z,5.47
2018-01-27T05:16:42.992Z,5.41
2018-01-27T05:17:45.472Z,5.36
2018-01-27T05:18:47.953Z,5.33
2018-01-27T05:19:50.461Z,5.25
2018-01-27T05:20:52.945Z,5.29
2018-01-27T05:21:55.428Z,5.31
2018-01-27T05:22:57.896Z,5.26
2018-01-27T05:24:00.376Z,5.24
2018-01-27T05:25:02.843Z,5.22
2018-01-27T05:26:05.328Z,5.19
2018-01-27T05:27:07.814Z,5.14
2018-01-27T05:28:10.305Z,5.10
2018-01-27T05:29:12.766Z,5.18
2018-01-27T05:30:15.244Z,5.41
2018-01-27T05:31:17.722Z,5.56
2018-01-27T05:32:20.189Z,5.32
2018-01-27T05:33:22.706Z,5.48
2018-01-27T05:34:25.195Z,5.31
2018-01-27T05:35:27.658Z,5.34
2018-01-27T05:36:30.136Z,5.60
2018-01-27T05:37:32.606Z,5.55
2018-01-27T05:38:35.088Z,5.50
2018-01-27T05:39:37.620Z,5.70
2018-01-27T05:40:40.069Z,5.53
2018-01-27T05:41:42.549Z,5.52
2018-01-27T05:42:45.025Z,5.34
2018-01-27T05:43:47.492Z,5.25
2018-01-27T05:44:49.972Z,5.47
2018-01-27T05:45:52.457Z,5.44
2018-01-27T05:46:54.940Z,5.59
2018-01-27T05:47:57.421Z,5.65
2018-01-27T05:48:59.886Z,5.58
2018-01-27T05:50:02.377Z,5.44
2018-01-27T05:51:04.845Z,5.44
2018-01-27T05:52:07.310Z,5.35
2018-01-27T05:53:09.779Z,5.23
2018-01-27T05:54:12.261Z,5.22
2018-01-27T05:55:14.752Z,5.44
2018-01-27T05:56:17.249Z,5.41
2018-01-27T05:57:20.549Z,5.65
2018-01-27T05:58:23.055Z,5.70
2018-01-27T05:59:25.572Z,5.70
2018-01-27T06:00:28.058Z,5.57
2018-01-27T06:01:30.546Z,5.41
2018-01-27T06:02:33.011Z,5.31
2018-01-27T06:03:35.493Z,5.23
2018-01-27T06:04:38.013Z,5.22
2018-01-27T06:05:40.462Z,5.39
2018-01-27T06:06:42.941Z,5.51
2018-01-27T06:07:45.425Z,5.56
2018-01-27T06:08:47.890Z,5.52
2018-01-27T06:09:50.358Z,5.52
2018-01-27T06:10:52.832Z,5.56
2018-01-27T06:11:55.298Z,5.63
2018-01-27T06:12:57.776Z,5.53
2018-01-27T06:14:00.328Z,5.48
2018-01-27T06:15:02.794Z,5.52
2018-01-27T06:16:05.269Z,5.56
2018-01-27T06:17:07.749Z,5.44
2018-01-27T06:18:10.228Z,5.26
2018-01-27T06:19:12.709Z,5.23
2018-01-27T06:20:15.193Z,5.30
2018-01-27T06:21:17.669Z,5.25
2018-01-27T06:22:20.191Z,5.20
2018-01-27T06:23:22.658Z,5.24
2018-01-27T06:24:25.145Z,5.29
2018-01-27T06:25:27.621Z,5.26
2018-01-27T06:26:30.101Z,5.12
2018-01-27T06:27:32.570Z,5.18
2018-01-27T06:28:35.040Z,5.25
2018-01-27T06:29:37.524Z,5.25
2018-01-27T06:30:39.986Z,5.17
2018-01-27T06:31:42.446Z,4.99
2018-01-27T06:32:44.960Z,4.77
2018-01-27T06:33:47.452Z,4.76
2018-01-27T06:34:49.915Z,4.62
2018-01-27T06:35:52.396Z,4.77
2018-01-27T06:36:54.868Z,4.60
2018-01-27T06:37:57.348Z,4.77
2018-01-27T06:38:59.832Z,4.81
2018-01-27T06:40:02.303Z,4.65
2018-01-27T06:41:04.782Z,4.57
2018-01-27T06:42:07.247Z,4.44
2018-01-27T06:43:09.723Z,4.38
2018-01-27T06:44:12.190Z,4.32
2018-01-27T06:45:14.664Z,4.39
2018-01-27T06:46:17.152Z,4.67
2018-01-27T06:47:19.627Z,4.78
2018-01-27T06:48:22.141Z,4.90
2018-01-27T06:49:24.606Z,4.87
2018-01-27T06:50:27.092Z,4.90
2018-01-27T06:51:29.577Z,4.87
2018-01-27T06:52:32.066Z,4.76
2018-01-27T06:53:34.542Z,4.61
2018-01-27T06:54:37.014Z,4.53
2018-01-27T06:55:39.516Z,4.53
2018-01-27T06:56:41.983Z,4.45
2018-01-27T06:57:44.470Z,4.41
2018-01-27T06:58:46.955Z,4.41
2018-01-27T06:59:49.421Z,4.43
2018-01-27T07:00:51.912Z,4.48
2018-01-27T07:01:54.383Z,4.61
2018-01-27T07:02:56.869Z,4.73
2018-01-27T07:03:59.353Z,4.69
2018-01-27T07:05:01.848Z,4.85
2018-01-27T07:06:04.315Z,5.03
2018-01-27T07:07:06.816Z,5.12
2018-01-27T07:08:09.283Z,5.12
2018-01-27T07:09:11.754Z,5.04
2018-01-27T07:10:14.237Z,4.95
2018-01-27T07:11:16.725Z,5.28
2018-01-27T07:12:19.214Z,5.17
2018-01-27T07:13:21.691Z,5.06
2018-01-27T07:14:24.173Z,4.94
2018-01-27T07:15:26.662Z,4.87
2018-01-27T07:16:29.145Z,4.82
2018-01-27T07:17:31.624Z,4.81
2018-01-27T07:18:34.101Z,4.81
2018-01-27T07:19:36.588Z,4.81
2018-01-27T07:20:39.060Z,4.85
2018-01-27T07:21:41.523Z,4.92
2018-01-27T07:22:43.990Z,5.31
2018-01-27T07:23:46.479Z,5.43
2018-01-27T07:24:49.000Z,5.51
2018-01-27T07:25:51.544Z,5.53
2018-01-27T07:26:54.027Z,5.70
2018-01-27T07:27:56.490Z,5.58
2018-01-27T07:28:58.954Z,5.54
2018-01-27T07:30:01.423Z,5.63
2018-01-27T07:31:03.900Z,5.64
2018-01-27T07:32:06.384Z,5.60
2018-01-27T07:33:08.865Z,5.50
2018-01-27T07:34:11.341Z,5.55
2018-01-27T07:35:13.826Z,5.57
2018-01-27T07:36:16.304Z,5.43
2018-01-27T07:37:18.774Z,5.65
2018-01-27T07:38:21.401Z,5.47
2018-01-27T07:39:23.876Z,5.46
2018-01-27T07:40:26.358Z,5.55
2018-01-27T07:41:28.929Z,5.50
2018-01-27T07:42:31.395Z,5.34
2018-01-27T07:43:33.884Z,5.28
2018-01-27T07:44:36.367Z,5.33
2018-01-27T07:45:38.834Z,5.31
2018-01-27T07:46:41.298Z,5.44
2018-01-27T07:47:43.770Z,5.38
2018-01-27T07:48:46.242Z,5.37
2018-01-27T07:49:48.716Z,5.58
2018-01-27T07:50:51.193Z,5.58
2018-01-27T07:51:53.661Z,5.61
2018-01-27T07:52:56.127Z,5.78
2018-01-27T07:53:58.625Z,5.71
2018-01-27T07:55:01.103Z,5.72
2018-01-27T07:56:03.638Z,5.69
2018-01-27T07:57:06.103Z,5.61
2018-01-27T07:58:08.579Z,5.61
2018-01-27T07:59:11.057Z,5.57
2018-01-27T08:00:13.541Z,5.73
2018-01-27T08:01:16.011Z,5.69
2018-01-27T08:02:18.493Z,5.74
2018-01-27T08:03:20.965Z,5.72
2018-01-27T08:04:23.452Z,5.93
2018-01-27T08:05:25.922Z,6.09
2018-01-27T08:06:28.426Z,6.03
2018-01-27T08:07:30.912Z,5.86
2018-01-27T08:08:33.407Z,5.74
2018-01-27T08:09:35.912Z,5.71
2018-01-27T08:10:38.406Z,5.73
2018-01-27T08:11:40.896Z,5.69
2018-01-27T08:12:43.422Z,5.67
2018-01-27T08:13:45.935Z,5.81
2018-01-27T08:14:48.430Z,5.97
2018-01-27T08:15:50.935Z,6.05
2018-01-27T08:16:53.464Z,6.06
2018-01-27T08:17:55.969Z,6.01
2018-01-27T08:18:58.488Z,5.90
2018-01-27T08:20:00.964Z,5.95
2018-01-27T08:21:03.462Z,6.10
2018-01-27T08:22:05.968Z,5.88
2018-01-27T08:23:08.448Z,5.96
2018-01-27T08:24:11.027Z,6.14
2018-01-27T08:25:13.547Z,6.17
2018-01-27T08:26:16.041Z,5.95
2018-01-27T08:27:18.512Z,5.78
2018-01-27T08:28:21.033Z,5.96
2018-01-27T08:29:23.576Z,6.26
2018-01-27T08:30:26.131Z,6.37
2018-01-27T08:31:29.212Z,6.23
2018-01-27T08:32:31.740Z,6.30
2018-01-27T08:33:34.255Z,6.27
2018-01-27T08:34:36.759Z,6.24
2018-01-27T08:35:39.264Z,6.27
2018-01-27T08:36:41.769Z,6.24
2018-01-27T08:37:44.276Z,6.33
2018-01-27T08:38:46.751Z,6.48
2018-01-27T08:39:49.244Z,6.59
2018-01-27T08:40:51.722Z,6.54
2018-01-27T08:41:54.190Z,6.79
2018-01-27T08:42:56.667Z,6.98
2018-01-27T08:43:59.200Z,7.06
2018-01-27T08:45:01.654Z,7.30
2018-01-27T08:46:04.130Z,7.74
2018-01-27T08:47:06.605Z,7.94
2018-01-27T08:48:09.076Z,8.01
2018-01-27T08:49:11.571Z,8.15
2018-01-27T08:50:14.035Z,8.54
2018-01-27T08:51:16.517Z,8.97
2018-01-27T08:52:18.983Z,9.14
2018-01-27T08:53:21.478Z,9.51
2018-01-27T08:54:23.941Z,9.41
2018-01-27T08:55:26.407Z,9.62
2018-01-27T08:56:28.876Z,9.68
2018-01-27T08:57:31.340Z,9.95
2018-01-27T08:58:33.803Z,9.88
2018-01-27T08:59:36.270Z,9.86
2018-01-27T09:00:38.748Z,9.81
2018-01-27T09:01:41.237Z,10.07
2018-01-27T09:02:43.702Z,10.21
2018-01-27T09:03:46.171Z,10.66
2018-01-27T09:04:48.656Z,11.07
2018-01-27T09:05:51.149Z,11.26
2018-01-27T09:06:53.619Z,11.44
2018-01-27T09:07:56.088Z,11.15
2018-01-27T09:08:58.571Z,11.63
2018-01-27T09:10:01.039Z,10.88
2018-01-27T09:11:03.536Z,10.62
2018-01-27T09:12:06.029Z,10.84
2018-01-27T09:13:08.517Z,10.73
2018-01-27T09:14:10.982Z,11.17
2018-01-27T09:15:13.465Z,11.68
2018-01-27T09:16:15.950Z,10.85
2018-01-27T09:17:18.453Z,10.81
2018-01-27T09:18:20.927Z,10.95
2018-01-27T09:19:23.395Z,10.71
2018-01-27T09:20:25.858Z,10.94
2018-01-27T09:21:28.322Z,10.59
2018-01-27T09:22:30.804Z,10.27
2018-01-27T09:23:33.329Z,10.55
2018-01-27T09:24:35.840Z,10.37
2018-01-27T09:25:38.318Z,9.72
2018-01-27T09:26:40.782Z,9.68
2018-01-27T09:27:43.250Z,10.02
2018-01-27T09:28:45.714Z,10.23
2018-01-27T09:29:48.178Z,10.57
2018-01-27T09:30:50.647Z,10.63
2018-01-27T09:31:53.129Z,10.09
2018-01-27T09:32:55.598Z,9.70
2018-01-27T09:33:58.081Z,9.54
2018-01-27T09:35:00.561Z,9.51
2018-01-27T09:36:03.032Z,10.05
2018-01-27T09:37:05.525Z,9.79
2018-01-27T09:38:08.001Z,9.59
2018-01-27T09:39:10.467Z,8.98
2018-01-27T09:40:12.930Z,9.06
2018-01-27T09:41:15.404Z,8.78
2018-01-27T09:42:17.884Z,8.27
2018-01-27T09:43:20.367Z,8.22
2018-01-27T09:44:22.848Z,8.15
2018-01-27T09:45:25.330Z,8.35
2018-01-27T09:46:27.813Z,7.99
2018-01-27T09:47:30.290Z,7.94
2018-01-27T09:48:32.776Z,8.30
2018-01-27T09:49:35.287Z,8.53
2018-01-27T09:50:37.768Z,8.84
2018-01-27T09:51:40.253Z,9.61
2018-01-27T09:52:42.723Z,10.27
2018-01-27T09:53:45.251Z,10.04
2018-01-27T09:54:47.728Z,9.77
2018-01-27T09:55:50.210Z,9.27
2018-01-27T09:56:52.695Z,9.13
2018-01-27T09:57:55.183Z,8.63
2018-01-27T09:58:57.657Z,8.86
2018-01-27T10:00:00.135Z,8.52
2018-01-27T10:01:02.598Z,8.53
2018-01-27T10:02:05.072Z,8.26
2018-01-27T10:03:07.538Z,8.27
2018-01-27T10:04:10.003Z,8.54
2018-01-27T10:05:12.466Z,8.26
2018-01-27T10:06:14.931Z,8.33
2018-01-27T10:07:17.417Z,7.90
2018-01-27T10:08:19.879Z,8.10
2018-01-27T10:09:22.362Z,8.13
2018-01-27T10:10:24.877Z,8.41
2018-01-27T10:11:27.342Z,8.63
2018-01-27T10:12:29.807Z,9.29
2018-01-27T10:13:32.280Z,9.37
2018-01-27T10:14:34.757Z,9.02
2018-01-27T10:15:37.234Z,9.26
2018-01-27T10:16:39.707Z,9.65
2018-01-27T10:17:42.175Z,10.21
2018-01-27T10:18:44.668Z,9.75
2018-01-27T10:19:47.150Z,9.73
2018-01-27T10:20:49.631Z,9.56
2018-01-27T10:21:52.104Z,9.28
2018-01-27T10:22:54.571Z,9.51
2018-01-27T10:23:57.055Z,9.62
2018-01-27T10:24:59.527Z,10.19
2018-01-27T10:26:02.006Z,10.61
2018-01-27T10:27:04.504Z,11.08
2018-01-27T10:28:07.002Z,10.84
2018-01-27T10:29:09.475Z,11.60
2018-01-27T10:30:11.966Z,11.97
2018-01-27T10:31:14.431Z,11.76
2018-01-27T10:32:16.918Z,11.24
2018-01-27T10:33:19.402Z,11.10
2018-01-27T10:34:21.895Z,11.42
2018-01-27T10:35:24.367Z,11.21
2018-01-27T10:36:26.843Z,11.72
2018-01-27T10:37:29.329Z,11.72
2018-01-27T10:38:31.799Z,11.82
2018-01-27T10:39:34.281Z,11.95
2018-01-27T10:40:36.766Z,12.46
2018-01-27T10:41:39.239Z,12.37
2018-01-27T10:42:41.745Z,12.69
2018-01-27T10:43:44.219Z,12.41
2018-01-27T10:44:46.686Z,12.81
2018-01-27T10:45:49.154Z,11.94
2018-01-27T10:46:51.641Z,11.26
2018-01-27T10:47:54.161Z,10.80
2018-01-27T10:48:56.645Z,10.84
2018-01-27T10:49:59.155Z,10.92
2018-01-27T10:51:01.652Z,10.78
2018-01-27T10:52:04.123Z,10.67
2018-01-27T10:53:06.591Z,10.84
2018-01-27T10:54:09.058Z,11.08
2018-01-27T10:55:11.536Z,11.10
2018-01-27T10:56:14.008Z,11.06
2018-01-27T10:57:16.483Z,10.88
2018-01-27T10:58:18.979Z,10.33
2018-01-27T10:59:21.446Z,9.76
2018-01-27T11:00:23.926Z,9.84
2018-01-27T11:01:26.398Z,10.06
2018-01-27T11:02:28.866Z,10.15
2018-01-27T11:03:32.073Z,9.92
2018-01-27T11:04:34.539Z,9.47
2018-01-27T11:05:37.006Z,9.03
2018-01-27T11:06:39.471Z,9.43
2018-01-27T11:07:41.957Z,10.24
2018-01-27T11:08:44.441Z,11.58
2018-01-27T11:09:46.911Z,12.61
2018-01-27T11:10:49.384Z,13.21
2018-01-27T11:11:51.855Z,12.93
2018-01-27T11:12:54.324Z,11.81
2018-01-27T11:13:56.847Z,11.21
2018-01-27T11:14:59.317Z,10.85
2018-01-27T11:16:01.810Z,10.03
2018-01-27T11:17:04.289Z,9.55
2018-01-27T11:18:06.772Z,9.35
2018-01-27T11:19:09.295Z,9.25
2018-01-27T11:20:12.855Z,8.92
2018-01-27T11:21:15.400Z,8.89
2018-01-27T11:22:18.693Z,8.92
2018-01-27T11:23:21.159Z,8.81
2018-01-27T11:24:23.637Z,8.80
2018-01-27T11:25:26.148Z,8.74
2018-01-27T11:26:28.644Z,8.79
2018-01-27T11:27:31.125Z,8.89
2018-01-27T11:28:33.595Z,9.09
2018-01-27T11:29:36.058Z,9.31
2018-01-27T11:30:38.527Z,8.88
2018-01-27T11:31:41.027Z,8.91
2018-01-27T11:32:43.555Z,9.80
2018-01-27T11:33:46.031Z,11.07
2018-01-27T11:34:48.536Z,11.43
2018-01-27T11:35:51.042Z,12.23
2018-01-27T11:36:53.554Z,11.91
2018-01-27T11:37:56.070Z,11.92
2018-01-27T11:38:58.614Z,12.05
2018-01-27T11:40:01.296Z,11.36
2018-01-27T11:41:04.244Z,10.88
2018-01-27T11:42:06.727Z,10.84
2018-01-27T11:43:09.220Z,10.75
2018-01-27T11:44:11.723Z,10.21
2018-01-27T11:45:14.213Z,9.90
2018-01-27T11:46:16.753Z,9.92
2018-01-27T11:47:19.253Z,9.53
2018-01-27T11:48:21.751Z,9.76
2018-01-27T11:49:24.230Z,9.85
2018-01-27T11:50:26.733Z,10.71
2018-01-27T11:51:29.235Z,11.91
2018-01-27T11:52:31.714Z,12.86
2018-01-27T11:53:34.209Z,12.36
2018-01-27T11:54:36.776Z,11.92
2018-01-27T11:55:39.246Z,11.07
2018-01-27T11:56:41.742Z,10.70
2018-01-27T11:57:44.233Z,10.46
2018-01-27T11:58:46.725Z,10.42
2018-01-27T11:59:49.199Z,10.96
2018-01-27T12:00:51.685Z,10.62
2018-01-27T12:01:54.155Z,10.47
2018-01-27T12:02:56.628Z,10.39
2018-01-27T12:03:59.117Z,10.54
2018-01-27T12:05:01.592Z,11.57
2018-01-27T12:06:04.076Z,12.05
2018-01-27T12:07:06.562Z,12.05
2018-01-27T12:08:09.027Z,12.31
2018-01-27T12:09:11.515Z,11.60
2018-01-27T12:10:13.991Z,11.32
2018-01-27T12:11:16.474Z,11.36
2018-01-27T12:12:18.962Z,11.96
2018-01-27T12:13:21.459Z,12.84
2018-01-27T12:14:23.951Z,13.42
2018-01-27T12:15:26.437Z,14.18
2018-01-27T12:16:28.922Z,14.59
2018-01-27T12:17:31.396Z,15.30
2018-01-27T12:18:33.885Z,15.63
2018-01-27T12:19:36.404Z,16.23
2018-01-27T12:20:38.921Z,15.16
2018-01-27T12:21:41.478Z,14.99
2018-01-27T12:22:43.945Z,15.92
2018-01-27T12:23:46.433Z,17.03
2018-01-27T12:24:48.903Z,17.22
2018-01-27T12:25:51.410Z,16.13
2018-01-27T12:26:53.892Z,17.75
2018-01-27T12:27:56.381Z,17.23
2018-01-27T12:28:58.878Z,18.19
2018-01-27T12:30:01.450Z,18.49
2018-01-27T12:31:04.160Z,18.81
2018-01-27T12:32:06.655Z,19.36
2018-01-27T12:33:09.151Z,19.38
2018-01-27T12:34:11.638Z,19.41
2018-01-27T12:35:14.181Z,19.28
2018-01-27T12:36:16.665Z,18.34
2018-01-27T12:37:19.153Z,18.77
2018-01-27T12:38:21.629Z,17.51
2018-01-27T12:39:24.111Z,18.99
2018-01-27T12:40:26.608Z,19.08
2018-01-27T12:41:29.097Z,17.49
2018-01-27T12:42:31.584Z,15.92
2018-01-27T12:43:34.059Z,15.93
2018-01-27T12:44:36.543Z,16.39
2018-01-27T12:45:39.050Z,15.59
2018-01-27T12:46:41.527Z,16.67
2018-01-27T12:47:44.003Z,16.83
2018-01-27T12:48:46.479Z,15.90
2018-01-27T12:49:48.960Z,15.24
2018-01-27T12:50:51.427Z,15.48
2018-01-27T12:51:53.903Z,15.48
2018-01-27T12:52:56.389Z,14.93
2018-01-27T12:53:58.880Z,15.21
2018-01-27T12:55:01.355Z,16.32
2018-01-27T12:56:03.827Z,17.27
2018-01-27T12:57:06.404Z,17.82
2018-01-27T12:58:08.918Z,18.25
2018-01-27T12:59:11.380Z,16.32
2018-01-27T13:00:13.877Z,16.40
2018-01-27T13:01:16.347Z,13.85
2018-01-27T13:02:18.823Z,13.88
2018-01-27T13:03:21.312Z,13.39
2018-01-27T13:04:23.778Z,13.78
2018-01-27T13:05:26.268Z,13.04
2018-01-27T13:06:28.761Z,12.48
2018-01-27T13:07:31.249Z,12.28
2018-01-27T13:08:33.737Z,13.44
2018-01-27T13:09:36.238Z,13.53
2018-01-27T13:10:38.707Z,13.13
2018-01-27T13:11:41.175Z,12.93
2018-01-27T13:12:43.661Z,12.58
2018-01-27T13:13:46.132Z,13.51
2018-01-27T13:14:48.609Z,15.05
2018-01-27T13:15:51.098Z,16.30
2018-01-27T13:16:53.593Z,16.77
2018-01-27T13:17:56.072Z,16.31
2018-01-27T13:18:58.586Z,15.18
2018-01-27T13:20:01.087Z,14.49
2018-01-27T13:21:03.669Z,13.29
2018-01-27T13:22:06.167Z,13.10
2018-01-27T13:23:12.255Z,12.50
2018-01-27T13:24:14.862Z,11.46
2018-01-27T13:25:17.410Z,11.18
2018-01-27T13:26:19.924Z,10.72
2018-01-27T13:27:22.439Z,10.86
2018-01-27T13:28:24.927Z,10.56
2018-01-27T13:29:27.434Z,10.65
2018-01-27T13:30:29.946Z,10.79
2018-01-27T13:31:32.460Z,10.99
2018-01-27T13:32:34.945Z,10.92
2018-01-27T13:33:37.448Z,10.22
2018-01-27T13:34:39.971Z,10.33
2018-01-27T13:35:42.485Z,10.40
2018-01-27T13:36:44.973Z,10.38
2018-01-27T13:37:47.457Z,10.46
2018-01-27T13:38:49.947Z,10.67
2018-01-27T13:39:52.419Z,10.60
2018-01-27T13:40:54.922Z,10.79
2018-01-27T13:41:57.413Z,10.97
2018-01-27T13:42:59.883Z,11.15
2018-01-27T13:44:02.380Z,11.44
2018-01-27T13:45:04.852Z,12.52